Time;durP1;ratioP1;P1;durP2;ratioP2;P2;SDS_P1;SDS_P2;PMS_P1;PMS_P2;Temp;Humidity;BMP_temperature;BMP_pressure;BME280_temperature;BME280_humidity;BME280_pressure;Samples;Min_cycle;Max_cycle;Signal;HPM_P1;HPM_P2
2021/05/20 00:02:12;;;;;;;0.80;0.80;;;8.50;99.90;;;;;;5073953;28;20183;-73
2021/05/20 00:04:38;;;;;;;0.70;0.50;;;8.50;99.90;;;;;;5072957;28;20291;-73
2021/05/20 00:07:04;;;;;;;0.60;0.60;;;8.50;99.90;;;;;;5073529;28;20644;-73
2021/05/20 00:09:30;;;;;;;2.53;0.80;;;8.60;99.90;;;;;;5073485;28;20193;-73
2021/05/20 00:11:56;;;;;;;1.27;1.10;;;8.50;99.90;;;;;;5073538;28;20918;-73
2021/05/20 00:14:22;;;;;;;1.08;0.98;;;8.40;99.90;;;;;;5073663;28;20423;-73
2021/05/20 00:16:48;;;;;;;1.00;0.80;;;8.30;99.90;;;;;;5073273;28;20260;-73
2021/05/20 00:19:13;;;;;;;0.60;0.60;;;8.40;99.90;;;;;;5073722;28;20166;-73
2021/05/20 00:21:39;;;;;;;0.77;0.70;;;8.50;99.90;;;;;;5073550;28;20569;-73
2021/05/20 00:24:05;;;;;;;1.07;0.80;;;8.60;99.90;;;;;;5074133;28;20250;-73
2021/05/20 00:26:32;;;;;;;1.30;1.20;;;8.50;99.90;;;;;;5071997;28;20180;-73
2021/05/20 00:28:59;;;;;;;6.38;1.00;;;8.50;99.90;;;;;;5073502;28;20182;-73
2021/05/20 00:31:24;;;;;;;3.47;1.70;;;8.40;99.90;;;;;;5073345;28;20187;-73
2021/05/20 00:33:50;;;;;;;1.03;1.03;;;8.50;99.90;;;;;;5073291;28;20200;-73
2021/05/20 00:36:15;;;;;;;0.50;0.50;;;8.50;99.90;;;;;;5073164;28;20707;-73
2021/05/20 00:38:41;;;;;;;0.83;0.83;;;8.60;99.90;;;;;;5073312;28;20214;-73
2021/05/20 00:41:08;;;;;;;0.73;0.73;;;8.70;99.90;;;;;;5073434;28;20222;-74
2021/05/20 00:43:34;;;;;;;1.08;0.80;;;8.60;99.90;;;;;;5073227;28;20554;-73
2021/05/20 00:45:59;;;;;;;1.43;1.33;;;8.50;99.90;;;;;;5073053;28;20234;-73
2021/05/20 00:48:25;;;;;;;1.23;0.80;;;8.60;99.90;;;;;;5073400;28;20402;-73
2021/05/20 00:50:50;;;;;;;0.70;0.70;;;8.70;99.90;;;;;;5073392;28;20180;-73
2021/05/20 00:53:16;;;;;;;2.87;0.80;;;8.50;99.90;;;;;;5072910;28;20241;-73
2021/05/20 00:55:42;;;;;;;0.90;0.70;;;8.50;99.90;;;;;;5072990;28;20317;-73
2021/05/20 00:58:11;;;;;;;1.40;1.30;;;8.60;99.90;;;;;;5073258;28;20407;-73
2021/05/20 01:00:37;;;;;;;1.05;1.05;;;8.50;99.90;;;;;;5073062;28;20173;-73
2021/05/20 01:03:05;;;;;;;0.60;0.60;;;8.50;99.90;;;;;;5073004;28;20190;-73
2021/05/20 01:05:30;;;;;;;1.10;1.10;;;8.50;99.90;;;;;;5073065;28;20195;-73
2021/05/20 01:07:56;;;;;;;1.50;1.40;;;8.40;99.90;;;;;;5073232;28;20258;-73
2021/05/20 01:10:22;;;;;;;1.03;0.70;;;8.30;99.90;;;;;;5072905;28;20180;-73
2021/05/20 01:12:48;;;;;;;1.17;0.98;;;8.40;99.90;;;;;;5073029;28;20228;-74
2021/05/20 01:15:20;;;;;;;1.20;1.10;;;8.40;99.90;;;;;;5072747;28;20160;-72
2021/05/20 01:17:53;;;;;;;0.60;0.60;;;8.40;99.90;;;;;;5076996;28;20456;-73
2021/05/20 01:20:27;;;;;;;2.42;1.02;;;8.40;99.90;;;;;;5076605;28;20177;-73
2021/05/20 01:23:01;;;;;;;0.77;0.77;;;8.50;99.90;;;;;;5076683;28;20225;-73
2021/05/20 01:25:27;;;;;;;1.00;0.90;;;8.50;99.90;;;;;;5076595;28;20245;-73
2021/05/20 01:27:53;;;;;;;1.17;0.80;;;8.50;99.90;;;;;;5076744;28;20618;-73
2021/05/20 01:30:19;;;;;;;0.77;0.77;;;8.50;99.90;;;;;;5076876;28;20176;-73
2021/05/20 01:32:45;;;;;;;0.80;0.80;;;8.50;99.90;;;;;;5076335;28;20180;-73
2021/05/20 01:35:11;;;;;;;1.17;1.10;;;8.60;99.90;;;;;;5076288;28;20430;-73
2021/05/20 01:37:37;;;;;;;2.08;1.20;;;8.50;99.90;;;;;;5076416;28;20212;-74
2021/05/20 01:40:03;;;;;;;1.40;1.30;;;8.60;99.90;;;;;;5075075;28;20308;-73
2021/05/20 01:42:29;;;;;;;1.30;1.20;;;8.70;99.90;;;;;;5076318;28;20179;-73
2021/05/20 01:44:54;;;;;;;0.73;0.73;;;8.70;99.90;;;;;;5076180;28;20669;-73
2021/05/20 01:47:20;;;;;;;1.20;1.10;;;8.70;99.90;;;;;;5076126;28;20177;-73
2021/05/20 01:49:51;;;;;;;0.90;0.90;;;8.50;99.90;;;;;;5076132;28;20172;-73
2021/05/20 01:52:17;;;;;;;0.90;0.90;;;8.20;99.90;;;;;;5076113;28;20653;-73
2021/05/20 01:54:42;;;;;;;0.82;0.82;;;8.30;99.90;;;;;;5074807;28;20579;-73
2021/05/20 01:57:08;;;;;;;0.70;0.70;;;8.30;99.90;;;;;;5075798;28;20200;-73
2021/05/20 01:59:34;;;;;;;1.93;0.63;;;8.30;99.90;;;;;;5076078;28;20165;-73
2021/05/20 02:01:59;;;;;;;0.73;0.73;;;8.30;99.90;;;;;;5076041;28;20168;-73
2021/05/20 02:04:25;;;;;;;0.73;0.73;;;8.40;99.90;;;;;;5074731;28;20226;-73
2021/05/20 02:06:51;;;;;;;1.27;0.70;;;8.40;99.90;;;;;;5075663;28;20168;-73
2021/05/20 02:09:17;;;;;;;0.80;0.80;;;8.40;99.90;;;;;;5075678;28;20258;-74
2021/05/20 02:11:42;;;;;;;1.03;0.70;;;8.50;99.90;;;;;;5076002;28;20275;-73
2021/05/20 02:14:08;;;;;;;0.50;0.50;;;8.60;99.90;;;;;;5075644;28;20229;-73
2021/05/20 02:16:34;;;;;;;0.70;0.70;;;8.30;99.90;;;;;;5075587;28;20215;-73
2021/05/20 02:18:59;;;;;;;1.03;0.50;;;8.20;99.90;;;;;;5075775;28;20631;-73
2021/05/20 02:21:25;;;;;;;0.50;0.50;;;8.30;99.90;;;;;;5075692;28;20760;-74
2021/05/20 02:23:51;;;;;;;1.80;0.60;;;8.40;99.90;;;;;;5075325;28;20193;-73
2021/05/20 02:26:16;;;;;;;0.67;0.67;;;8.40;99.90;;;;;;5075361;28;20172;-73
2021/05/20 02:28:42;;;;;;;0.40;0.40;;;8.50;99.90;;;;;;5074619;28;20173;-73
2021/05/20 02:31:08;;;;;;;0.40;0.40;;;8.50;99.90;;;;;;5075490;28;20177;-73
2021/05/20 02:33:34;;;;;;;1.23;1.13;;;8.50;99.90;;;;;;5075349;28;20478;-73
2021/05/20 02:35:59;;;;;;;0.90;0.80;;;8.50;99.90;;;;;;5074969;28;20217;-73
2021/05/20 02:38:25;;;;;;;0.67;0.67;;;8.50;99.90;;;;;;5075252;28;20204;-73
2021/05/20 02:40:50;;;;;;;0.73;0.70;;;8.70;99.90;;;;;;5075642;28;20195;-73
2021/05/20 02:43:16;;;;;;;0.57;0.57;;;8.70;99.90;;;;;;5075154;28;20184;-73
2021/05/20 02:45:42;;;;;;;0.57;0.57;;;8.70;99.90;;;;;;5074966;28;20173;-73
2021/05/20 02:48:08;;;;;;;0.90;0.90;;;8.60;99.90;;;;;;5075259;28;20171;-73
2021/05/20 02:50:33;;;;;;;0.70;0.70;;;8.60;99.90;;;;;;5075072;28;20200;-73
2021/05/20 02:52:59;;;;;;;0.80;0.80;;;8.60;99.90;;;;;;5075043;28;20422;-73
2021/05/20 02:55:25;;;;;;;1.13;1.00;;;8.60;99.90;;;;;;5074931;28;20199;-73
2021/05/20 02:57:54;;;;;;;0.87;0.70;;;8.40;99.90;;;;;;5074860;28;20235;-73
2021/05/20 03:00:21;;;;;;;0.70;0.70;;;8.50;99.90;;;;;;5074718;28;20491;-73
2021/05/20 03:02:48;;;;;;;0.80;0.80;;;8.50;99.90;;;;;;5074847;28;20560;-73
2021/05/20 03:05:13;;;;;;;0.85;0.70;;;8.50;99.90;;;;;;5074469;28;20572;-73
2021/05/20 03:07:39;;;;;;;0.83;0.83;;;8.40;99.90;;;;;;5074631;28;20180;-73
2021/05/20 03:10:07;;;;;;;0.90;0.90;;;8.50;99.90;;;;;;5074632;28;20426;-73
2021/05/20 03:12:33;;;;;;;1.00;0.90;;;8.60;99.90;;;;;;5074624;28;20178;-73
2021/05/20 03:14:59;;;;;;;0.68;0.68;;;8.50;99.90;;;;;;5074413;28;20192;-73
2021/05/20 03:17:24;;;;;;;1.50;1.40;;;8.50;99.90;;;;;;5074176;28;20616;-73
2021/05/20 03:19:50;;;;;;;1.00;0.90;;;8.50;99.90;;;;;;5074547;28;20168;-73
2021/05/20 03:22:16;;;;;;;1.73;1.20;;;8.40;99.90;;;;;;5074589;28;20220;-73
2021/05/20 03:24:42;;;;;;;2.40;1.00;;;8.40;99.90;;;;;;5074250;28;20419;-73
2021/05/20 03:27:07;;;;;;;1.27;1.00;;;8.30;99.90;;;;;;5074218;28;21055;-73
2021/05/20 03:29:33;;;;;;;1.00;1.00;;;8.00;99.90;;;;;;5074525;28;20182;-73
2021/05/20 03:31:59;;;;;;;0.87;0.87;;;8.00;99.90;;;;;;5074281;28;20203;-73
2021/05/20 03:34:24;;;;;;;0.90;0.90;;;8.10;99.90;;;;;;5074059;28;20671;-73
2021/05/20 03:36:50;;;;;;;1.03;0.70;;;8.30;99.90;;;;;;5073868;28;20207;-73
2021/05/20 03:39:16;;;;;;;0.73;0.67;;;8.40;99.90;;;;;;5073209;28;20180;-73
2021/05/20 03:41:41;;;;;;;0.53;0.53;;;8.50;99.90;;;;;;5074060;28;20434;-73
2021/05/20 03:44:08;;;;;;;0.60;0.60;;;8.60;99.90;;;;;;5073883;28;20196;-73
2021/05/20 03:46:33;;;;;;;0.63;0.63;;;8.70;99.90;;;;;;5073803;28;20676;-73
2021/05/20 03:48:59;;;;;;;0.80;0.80;;;8.70;99.90;;;;;;5073838;28;20207;-73
2021/05/20 03:51:25;;;;;;;0.50;0.50;;;8.60;99.90;;;;;;5073866;28;20177;-73
2021/05/20 03:53:50;;;;;;;0.50;0.50;;;8.40;99.90;;;;;;5073732;28;20204;-73
2021/05/20 03:56:16;;;;;;;1.10;0.57;;;8.40;99.90;;;;;;5073573;28;20446;-73
2021/05/20 03:58:42;;;;;;;0.43;0.43;;;8.40;99.90;;;;;;5072652;28;20195;-73
2021/05/20 04:01:07;;;;;;;1.30;1.00;;;8.20;99.90;;;;;;5073954;28;20179;-73
2021/05/20 04:03:33;;;;;;;2.60;1.53;;;8.30;99.90;;;;;;5073680;28;20196;-73
2021/05/20 04:06:00;;;;;;;1.47;1.37;;;8.50;99.90;;;;;;5073490;28;20211;-73
2021/05/20 04:08:26;;;;;;;1.10;1.00;;;8.50;99.90;;;;;;5073564;28;20280;-73
2021/05/20 04:10:53;;;;;;;0.70;0.50;;;8.50;99.90;;;;;;5073678;28;20693;-73
2021/05/20 04:13:39;;;;;;;2.15;0.82;;;8.50;99.90;;;;;;5073589;28;20241;-73
2021/05/20 04:16:06;;;;;;;0.50;0.50;;;8.50;99.90;;;;;;5073306;28;20212;-73
2021/05/20 04:18:32;;;;;;;0.50;0.40;;;8.60;99.90;;;;;;5073470;28;20570;-73
2021/05/20 04:20:59;;;;;;;0.73;0.50;;;8.70;99.90;;;;;;5073705;28;20527;-73
2021/05/20 04:23:25;;;;;;;0.60;0.60;;;8.70;99.90;;;;;;5073490;28;20211;-73
2021/05/20 04:25:52;;;;;;;0.47;0.47;;;8.60;99.90;;;;;;5073355;28;20176;-73
2021/05/20 04:28:18;;;;;;;0.45;0.45;;;8.70;99.90;;;;;;5073621;28;20505;-73
2021/05/20 04:30:45;;;;;;;1.02;0.98;;;8.60;99.90;;;;;;5073506;28;20531;-73
2021/05/20 04:33:12;;;;;;;1.10;1.00;;;8.70;99.90;;;;;;5073196;28;20192;-74
2021/05/20 04:35:39;;;;;;;1.23;1.13;;;8.60;99.90;;;;;;5073134;28;20169;-74
2021/05/20 04:38:06;;;;;;;0.60;0.60;;;8.40;99.90;;;;;;5073522;28;20169;-73
2021/05/20 04:40:33;;;;;;;0.95;0.95;;;8.60;99.90;;;;;;5073405;28;20173;-73
2021/05/20 04:42:59;;;;;;;0.77;0.77;;;8.80;99.90;;;;;;5073362;28;20188;-73
2021/05/20 04:45:24;;;;;;;0.97;0.70;;;8.90;99.90;;;;;;5073101;28;20543;-73
2021/05/20 04:47:50;;;;;;;1.07;0.90;;;8.80;99.90;;;;;;5073265;28;20632;-73
2021/05/20 04:50:17;;;;;;;1.00;0.70;;;8.90;99.90;;;;;;5073417;28;20189;-73
2021/05/20 04:52:43;;;;;;;0.88;0.80;;;8.80;99.90;;;;;;5077335;28;20173;-73
2021/05/20 04:55:10;;;;;;;0.68;0.68;;;8.90;99.90;;;;;;5075778;28;20184;-73
2021/05/20 04:57:36;;;;;;;0.70;0.70;;;8.90;99.90;;;;;;5077254;28;20287;-73
2021/05/20 05:00:06;;;;;;;0.50;0.50;;;9.10;99.90;;;;;;5077071;28;20291;-73
2021/05/20 05:02:32;;;;;;;0.57;0.57;;;9.00;99.90;;;;;;5077088;28;20268;-73
2021/05/20 05:04:58;;;;;;;0.50;0.50;;;9.10;99.90;;;;;;5077100;28;20264;-73
2021/05/20 05:07:23;;;;;;;0.67;0.67;;;9.20;99.90;;;;;;5076751;28;20403;-73
2021/05/20 05:09:49;;;;;;;2.43;0.80;;;9.40;99.90;;;;;;5076772;28;20188;-73
2021/05/20 05:12:15;;;;;;;0.60;0.60;;;9.20;99.90;;;;;;5076842;28;20201;-73
2021/05/20 05:14:41;;;;;;;1.07;0.50;;;9.30;99.90;;;;;;5076795;28;20193;-73
2021/05/20 05:17:06;;;;;;;0.53;0.53;;;9.20;99.90;;;;;;5076930;28;20230;-73
2021/05/20 05:19:32;;;;;;;0.40;0.40;;;9.20;99.90;;;;;;5076844;28;20403;-73
2021/05/20 05:22:02;;;;;;;0.70;0.50;;;9.10;99.90;;;;;;5076920;28;20183;-73
2021/05/20 05:24:27;;;;;;;0.60;0.60;;;9.00;99.90;;;;;;5076660;28;20184;-73
2021/05/20 05:26:53;;;;;;;0.50;0.50;;;9.00;99.90;;;;;;5076341;28;20181;-73
2021/05/20 05:29:19;;;;;;;0.60;0.40;;;9.20;99.90;;;;;;5076553;28;20193;-73
2021/05/20 05:31:44;;;;;;;0.70;0.60;;;9.40;99.90;;;;;;5076542;28;20179;-73
2021/05/20 05:34:10;;;;;;;0.50;0.50;;;9.40;99.90;;;;;;5076413;28;20268;-73
2021/05/20 05:36:35;;;;;;;0.40;0.40;;;9.60;99.90;;;;;;5076328;28;20201;-73
2021/05/20 05:39:01;;;;;;;0.80;0.57;;;9.60;99.90;;;;;;5076588;28;20699;-73
2021/05/20 05:41:27;;;;;;;0.60;0.60;;;10.00;99.90;;;;;;5076531;28;20279;-73
2021/05/20 05:43:53;;;;;;;0.93;0.70;;;10.10;99.90;;;;;;5076227;28;20192;-73
2021/05/20 05:46:18;;;;;;;0.80;0.70;;;10.30;99.70;;;;;;5075763;28;20415;-73
2021/05/20 05:48:47;;;;;;;0.97;0.70;;;10.50;98.60;;;;;;5076225;28;20173;-73
2021/05/20 05:51:14;;;;;;;0.50;0.50;;;10.50;99.00;;;;;;5076380;28;20170;-73
2021/05/20 05:53:40;;;;;;;0.57;0.57;;;10.10;99.90;;;;;;5075970;28;20189;-73
2021/05/20 05:56:06;;;;;;;0.63;0.63;;;10.00;99.30;;;;;;5075737;28;20584;-73
2021/05/20 05:58:31;;;;;;;0.50;0.50;;;9.80;99.90;;;;;;5075286;28;20244;-73
2021/05/20 06:00:58;;;;;;;1.07;0.80;;;10.00;99.90;;;;;;5075923;28;20174;-73
2021/05/20 06:03:24;;;;;;;1.00;0.85;;;10.20;99.50;;;;;;5072688;28;20197;-73
2021/05/20 06:05:50;;;;;;;0.70;0.70;;;10.10;99.90;;;;;;5075859;28;20181;-73
2021/05/20 06:08:16;;;;;;;0.60;0.60;;;10.10;99.90;;;;;;5076133;28;20385;-73
2021/05/20 06:10:41;;;;;;;0.60;0.60;;;10.30;99.90;;;;;;5075879;28;20209;-73
2021/05/20 06:13:08;;;;;;;0.70;0.70;;;10.50;99.20;;;;;;5075856;28;20664;-73
2021/05/20 06:15:34;;;;;;;1.95;0.90;;;10.40;99.20;;;;;;5075751;28;20166;-73
2021/05/20 06:18:00;;;;;;;0.80;0.80;;;10.00;99.10;;;;;;5075664;28;20725;-73
2021/05/20 06:20:25;;;;;;;0.90;0.60;;;9.70;99.90;;;;;;5075762;28;20172;-73
2021/05/20 06:22:51;;;;;;;0.67;0.67;;;10.00;99.90;;;;;;5074441;28;20180;-73
2021/05/20 06:25:17;;;;;;;0.70;0.70;;;10.30;99.90;;;;;;5075339;28;20176;-73
2021/05/20 06:27:42;;;;;;;1.27;1.00;;;10.20;99.30;;;;;;5074752;28;20169;-73
2021/05/20 06:30:08;;;;;;;1.00;0.90;;;10.10;99.90;;;;;;5075826;28;20288;-76
2021/05/20 06:32:36;;;;;;;0.90;0.90;;;10.10;99.90;;;;;;5075722;28;20523;-76
2021/05/20 06:35:05;;;;;;;0.88;0.88;;;10.20;99.30;;;;;;5074467;28;20178;-77
2021/05/20 06:37:32;;;;;;;1.10;1.00;;;10.20;99.40;;;;;;5075222;28;20189;-77
2021/05/20 06:39:57;;;;;;;0.68;0.68;;;10.50;99.10;;;;;;5075960;28;20178;-75
2021/05/20 06:42:23;;;;;;;0.67;0.67;;;10.50;98.70;;;;;;5075656;28;20188;-78
2021/05/20 06:44:49;;;;;;;0.80;0.80;;;10.50;98.20;;;;;;5074882;28;20426;-78
2021/05/20 06:47:15;;;;;;;0.70;0.70;;;10.50;97.70;;;;;;5074768;28;20170;-78
2021/05/20 06:49:40;;;;;;;1.53;1.00;;;10.30;97.90;;;;;;5075051;28;20166;-76
2021/05/20 06:52:06;;;;;;;0.70;0.70;;;10.10;98.50;;;;;;5075217;28;20328;-78
2021/05/20 06:54:32;;;;;;;1.10;1.00;;;10.10;99.30;;;;;;5074047;28;20193;-76
2021/05/20 06:57:01;;;;;;;1.50;1.10;;;9.90;99.90;;;;;;5074718;28;20443;-76
2021/05/20 07:02:10;;;;;;;0.90;0.90;;;9.90;99.90;;;;;;5075035;28;20223;-77
2021/05/20 07:04:36;;;;;;;0.93;0.93;;;10.00;99.90;;;;;;5074879;28;20193;-75
2021/05/20 07:07:02;;;;;;;1.40;1.27;;;10.20;99.90;;;;;;5074493;28;20184;-78
2021/05/20 07:09:29;;;;;;;1.30;1.13;;;10.30;99.90;;;;;;5074486;28;20617;-78
2021/05/20 07:11:56;;;;;;;1.45;1.35;;;10.00;99.50;;;;;;5074662;28;20170;-76
2021/05/20 07:14:22;;;;;;;1.95;1.48;;;10.10;99.90;;;;;;5074310;28;20653;-78
2021/05/20 07:16:47;;;;;;;1.60;1.50;;;10.20;99.90;;;;;;5074380;28;20295;-75
2021/05/20 07:19:13;;;;;;;0.90;0.90;;;10.20;99.90;;;;;;5074586;28;20400;-78
2021/05/20 07:21:39;;;;;;;0.70;0.70;;;10.10;99.90;;;;;;5074469;28;20201;-78
2021/05/20 07:24:05;;;;;;;1.47;0.80;;;10.30;99.90;;;;;;5074274;28;20190;-76
2021/05/20 07:26:31;;;;;;;0.47;0.47;;;10.40;99.90;;;;;;5074233;28;20170;-79
2021/05/20 07:28:56;;;;;;;0.63;0.63;;;10.20;99.90;;;;;;5073407;28;20691;-76
2021/05/20 07:31:22;;;;;;;0.60;0.60;;;10.10;99.70;;;;;;5074832;28;20256;-75
2021/05/20 07:33:48;;;;;;;0.50;0.43;;;10.30;99.30;;;;;;5074120;28;20190;-78
2021/05/20 07:36:14;;;;;;;1.00;0.67;;;10.10;99.10;;;;;;5073969;28;20267;-77
2021/05/20 07:38:39;;;;;;;0.80;0.80;;;10.00;99.90;;;;;;5073295;28;20165;-75
2021/05/20 07:41:06;;;;;;;0.63;0.53;;;9.60;99.90;;;;;;5073995;28;20658;-76
2021/05/20 07:43:32;;;;;;;0.50;0.50;;;9.50;99.90;;;;;;5073720;28;20193;-76
2021/05/20 07:45:58;;;;;;;0.87;0.60;;;9.50;99.90;;;;;;5072428;28;20180;-75
2021/05/20 07:48:24;;;;;;;0.55;0.55;;;9.60;99.90;;;;;;5073940;28;20769;-75
2021/05/20 07:50:49;;;;;;;0.70;0.70;;;9.80;99.90;;;;;;5073933;28;20169;-78
2021/05/20 07:53:15;;;;;;;0.73;0.60;;;9.70;99.90;;;;;;5073969;28;20412;-77
2021/05/20 07:55:41;;;;;;;0.50;0.50;;;9.70;99.90;;;;;;5073782;28;20200;-75
2021/05/20 07:58:06;;;;;;;0.93;0.50;;;9.60;99.90;;;;;;5074078;28;20194;-76
2021/05/20 08:00:32;;;;;;;1.17;1.07;;;9.60;99.90;;;;;;5074179;28;20173;-75
2021/05/20 08:03:18;;;;;;;0.57;0.57;;;9.80;99.60;;;;;;5072834;28;20240;-74
2021/05/20 08:11:02;;;;;;;0.50;0.50;;;10.00;99.60;;;;;;5073860;28;20553;-74
2021/05/20 08:13:38;;;;;;;0.70;0.50;;;10.00;99.90;;;;;;5074285;28;20186;-75
2021/05/20 08:16:04;;;;;;;0.93;0.93;;;10.40;98.90;;;;;;5073432;28;20223;-75
2021/05/20 08:18:31;;;;;;;0.70;0.70;;;10.60;98.30;;;;;;5073746;28;20240;-76
2021/05/20 08:20:58;;;;;;;0.52;0.52;;;10.90;97.90;;;;;;5073824;28;20172;-78
2021/05/20 08:23:24;;;;;;;0.65;0.65;;;11.10;97.60;;;;;;5072818;28;20189;-71
2021/05/20 08:25:50;;;;;;;1.85;0.50;;;11.20;97.30;;;;;;5073073;28;20635;-71
2021/05/20 08:28:16;;;;;;;0.50;0.50;;;11.30;96.90;;;;;;5073709;28;20176;-73
2021/05/20 08:30:43;;;;;;;0.88;0.52;;;11.40;97.20;;;;;;5073705;28;20403;-73
2021/05/20 08:33:09;;;;;;;1.08;1.00;;;11.60;96.40;;;;;;5073374;28;20193;-73
2021/05/20 08:35:36;;;;;;;0.70;0.70;;;11.60;96.10;;;;;;5073500;28;20256;-74
2021/05/20 08:38:02;;;;;;;0.93;0.70;;;12.10;95.50;;;;;;5073498;28;20451;-75
2021/05/20 08:40:28;;;;;;;1.10;1.07;;;13.00;94.00;;;;;;5074019;28;20399;-73
2021/05/20 08:42:54;;;;;;;0.70;0.63;;;13.90;94.10;;;;;;5073229;28;20451;-74
2021/05/20 08:45:26;;;;;;;0.80;0.80;;;14.60;92.60;;;;;;5073339;28;20173;-73
2021/05/20 08:47:53;;;;;;;0.80;0.80;;;14.60;90.40;;;;;;5073579;28;20430;-74
2021/05/20 08:50:20;;;;;;;0.83;0.80;;;14.60;91.00;;;;;;5073599;28;20554;-73
2021/05/20 08:52:46;;;;;;;1.07;0.97;;;14.40;91.30;;;;;;5073496;28;20403;-73
2021/05/20 08:55:17;;;;;;;0.97;0.97;;;14.30;91.00;;;;;;5073658;28;20403;-73
2021/05/20 08:57:44;;;;;;;0.70;0.70;;;14.60;91.50;;;;;;5073181;28;20458;-74
2021/05/20 09:00:20;;;;;;;1.50;1.40;;;14.80;90.70;;;;;;5073352;28;20413;-74
2021/05/20 09:02:47;;;;;;;1.13;1.10;;;14.60;90.80;;;;;;5073332;28;20400;-74
2021/05/20 09:05:17;;;;;;;1.07;0.97;;;14.70;90.60;;;;;;5073354;28;20401;-71
2021/05/20 09:07:51;;;;;;;1.17;1.03;;;15.40;90.20;;;;;;5073346;28;20404;-73
2021/05/20 09:10:34;;;;;;;1.07;0.97;;;16.20;87.70;;;;;;5073338;28;20423;-76
2021/05/20 09:13:05;;;;;;;2.00;1.13;;;16.30;90.10;;;;;;5073149;28;20518;-75
2021/05/20 09:15:35;;;;;;;1.60;1.50;;;16.70;87.70;;;;;;5073406;28;20396;-76
2021/05/20 09:18:12;;;;;;;1.13;1.07;;;16.80;84.20;;;;;;5073486;28;20526;-77
2021/05/20 09:20:40;;;;;;;1.00;1.00;;;16.40;84.90;;;;;;5073399;28;20384;-77
2021/05/20 09:23:10;;;;;;;1.60;1.50;;;15.90;87.00;;;;;;5072884;28;20434;-75
2021/05/20 09:25:37;;;;;;;1.10;1.10;;;15.70;86.50;;;;;;5073152;28;20427;-75
2021/05/20 09:28:04;;;;;;;1.37;1.27;;;16.40;86.00;;;;;;5072882;28;20408;-75
2021/05/20 09:30:32;;;;;;;0.90;0.90;;;16.70;84.60;;;;;;5073310;28;20399;-76
2021/05/20 09:33:08;;;;;;;1.23;1.17;;;18.30;81.60;;;;;;5072332;28;20418;-74
2021/05/20 09:35:48;;;;;;;2.03;1.10;;;19.60;76.70;;;;;;5072602;28;20415;-75
2021/05/20 09:38:20;;;;;;;1.87;1.17;;;19.80;70.40;;;;;;5076099;28;20394;-77
2021/05/20 09:40:48;;;;;;;1.13;0.97;;;18.90;70.20;;;;;;5076976;28;20405;-75
2021/05/20 09:43:18;;;;;;;1.27;1.13;;;17.60;77.20;;;;;;5073443;28;20965;-78
2021/05/20 09:45:45;;;;;;;1.10;1.10;;;16.30;77.00;;;;;;5075219;28;20392;-78
2021/05/20 09:48:12;;;;;;;1.50;1.40;;;15.80;82.00;;;;;;5076552;28;20409;-76
2021/05/20 09:50:48;;;;;;;1.03;0.90;;;15.80;81.70;;;;;;5076219;28;20411;-75
2021/05/20 09:53:20;;;;;;;1.57;1.47;;;15.20;85.50;;;;;;5076766;28;20518;-75
2021/05/20 09:55:57;;;;;;;1.23;1.00;;;15.40;87.40;;;;;;5075971;28;20576;-76
2021/05/20 09:58:27;;;;;;;1.30;1.20;;;16.00;85.80;;;;;;5076321;28;20401;-77
2021/05/20 10:00:57;;;;;;;1.13;1.03;;;16.30;80.10;;;;;;5075350;28;20473;-75
2021/05/20 10:03:24;;;;;;;1.60;1.50;;;16.20;82.50;;;;;;5076132;28;20905;-75
2021/05/20 10:05:59;;;;;;;1.00;0.93;;;16.70;83.30;;;;;;5075806;28;20392;-75
2021/05/20 10:08:28;;;;;;;1.30;1.20;;;16.90;80.10;;;;;;5076054;28;20468;-77
2021/05/20 10:10:56;;;;;;;1.17;1.17;;;17.20;80.90;;;;;;5074640;28;20413;-78
2021/05/20 10:13:26;;;;;;;0.83;0.83;;;17.60;80.10;;;;;;5075616;28;20425;-77
2021/05/20 10:15:54;;;;;;;1.40;1.30;;;17.00;79.60;;;;;;5075469;28;20404;-77
2021/05/20 10:18:22;;;;;;;1.10;1.10;;;16.00;83.70;;;;;;5075834;28;20407;-78
2021/05/20 10:20:50;;;;;;;1.43;1.10;;;15.70;80.70;;;;;;5076030;28;20416;-76
2021/05/20 10:23:19;;;;;;;2.60;1.57;;;15.80;83.00;;;;;;5074580;28;20424;-76
2021/05/20 10:25:47;;;;;;;1.17;1.17;;;15.30;85.10;;;;;;5074192;28;20443;-76
2021/05/20 10:28:15;;;;;;;3.70;1.40;;;14.90;88.70;;;;;;5074556;28;20434;-78
2021/05/20 10:30:43;;;;;;;1.20;1.10;;;14.60;89.70;;;;;;5075629;28;20467;-77
2021/05/20 10:33:09;;;;;;;2.20;1.30;;;14.20;90.10;;;;;;5074852;28;20805;-77
2021/05/20 10:35:38;;;;;;;1.50;1.40;;;14.10;91.20;;;;;;5075161;28;20402;-75
2021/05/20 10:38:05;;;;;;;1.30;1.20;;;14.70;91.00;;;;;;5073946;28;20543;-77
2021/05/20 10:40:33;;;;;;;1.00;1.00;;;14.70;88.10;;;;;;5075330;28;20403;-77
2021/05/20 10:43:12;;;;;;;1.33;1.23;;;15.30;83.80;;;;;;5075140;28;20416;-76
2021/05/20 10:45:58;;;;;;;3.10;1.27;;;15.40;81.60;;;;;;5074984;28;20932;-77
2021/05/20 10:48:24;;;;;;;1.40;1.30;;;15.40;87.90;;;;;;5074781;28;20751;-75
2021/05/20 10:50:50;;;;;;;1.23;1.13;;;15.50;86.10;;;;;;5073782;28;20411;-76
2021/05/20 10:53:40;;;;;;;1.10;1.00;;;15.30;86.60;;;;;;5074884;28;20428;-76
2021/05/20 10:56:07;;;;;;;1.47;1.37;;;15.90;83.00;;;;;;5073557;28;20403;-78
2021/05/20 10:58:37;;;;;;;1.50;1.40;;;16.50;81.30;;;;;;5074941;28;20451;-79
2021/05/20 11:01:05;;;;;;;1.33;1.23;;;16.80;78.70;;;;;;5075076;28;20880;-75
2021/05/20 11:03:49;;;;;;;1.20;1.20;;;17.00;76.80;;;;;;5075032;28;20427;-76
2021/05/20 11:06:16;;;;;;;1.80;1.70;;;17.00;75.30;;;;;;5074564;28;20887;-76
2021/05/20 11:08:42;;;;;;;1.10;1.10;;;17.10;76.10;;;;;;5074625;28;20408;-74
2021/05/20 11:11:42;;;;;;;1.30;1.20;;;16.70;78.20;;;;;;5074937;28;20958;-76
2021/05/20 11:14:14;;;;;;;1.10;1.00;;;15.90;77.70;;;;;;5074142;28;20217;-76
2021/05/20 11:16:44;;;;;;;0.87;0.87;;;15.90;83.20;;;;;;5074274;28;20444;-75
2021/05/20 11:19:26;;;;;;;1.40;1.30;;;16.20;82.40;;;;;;5074875;28;20400;-76
2021/05/20 11:22:04;;;;;;;1.27;1.20;;;16.10;78.60;;;;;;5074468;28;20406;-79
2021/05/20 11:24:35;;;;;;;1.13;1.10;;;15.50;83.50;;;;;;5074271;28;20997;-78
2021/05/20 11:27:08;;;;;;;1.50;1.40;;;15.20;82.10;;;;;;5074124;28;20455;-76
2021/05/20 11:29:36;;;;;;;1.50;1.40;;;14.60;84.50;;;;;;5074665;28;20410;-77
2021/05/20 11:32:16;;;;;;;1.00;0.90;;;14.40;84.30;;;;;;5074133;28;20441;-76
2021/05/20 11:37:25;;;;;;;1.03;1.03;;;14.20;87.70;;;;;;5074074;28;20482;-76
2021/05/20 11:39:50;;;;;;;2.30;1.13;;;14.30;86.80;;;;;;5074185;28;20912;-75
2021/05/20 11:42:28;;;;;;;1.37;1.27;;;14.60;87.00;;;;;;5073959;28;20398;-77
2021/05/20 11:44:55;;;;;;;1.40;1.10;;;14.90;85.00;;;;;;5073841;28;20185;-76
2021/05/20 11:47:23;;;;;;;1.00;1.00;;;15.60;81.50;;;;;;5073888;28;20738;-75
2021/05/20 11:49:50;;;;;;;1.30;1.20;;;16.10;82.40;;;;;;5074010;28;20400;-78
2021/05/20 11:52:17;;;;;;;1.17;0.80;;;16.80;77.90;;;;;;5073726;28;20897;-75
2021/05/20 11:54:49;;;;;;;1.00;1.00;;;17.10;74.00;;;;;;5073760;28;20442;-76
2021/05/20 11:57:17;;;;;;;1.57;1.10;;;16.90;71.80;;;;;;5073526;28;20447;-77
2021/05/20 11:59:45;;;;;;;3.43;1.10;;;17.00;74.70;;;;;;5073576;28;20431;-77
2021/05/20 12:02:19;;;;;;;0.60;0.60;;;16.70;74.00;;;;;;5072397;28;20402;-74
2021/05/20 12:04:45;;;;;;;0.70;0.70;;;16.70;76.80;;;;;;5073786;28;20446;-77
2021/05/20 12:07:26;;;;;;;1.07;1.00;;;16.60;73.80;;;;;;5072256;28;20431;-78
2021/05/20 12:09:53;;;;;;;0.87;0.87;;;16.60;73.40;;;;;;5073559;28;20540;-77
2021/05/20 12:12:19;;;;;;;0.90;0.73;;;16.40;72.90;;;;;;5073965;28;20403;-74
2021/05/20 12:14:46;;;;;;;0.63;0.63;;;16.10;72.60;;;;;;5074023;28;20494;-79
2021/05/20 12:17:13;;;;;;;1.00;0.90;;;15.80;71.70;;;;;;5073184;28;20454;-76
2021/05/20 12:19:46;;;;;;;0.60;0.60;;;15.80;74.40;;;;;;5073435;28;20963;-75
2021/05/20 12:22:22;;;;;;;0.60;0.60;;;15.90;75.60;;;;;;5073627;28;20406;-74
2021/05/20 12:24:50;;;;;;;1.83;1.37;;;15.70;75.80;;;;;;5073808;28;20422;-76
2021/05/20 12:27:22;;;;;;;0.67;0.67;;;15.50;75.40;;;;;;5073222;28;20408;-78
2021/05/20 12:30:00;;;;;;;0.60;0.60;;;15.50;77.90;;;;;;5073598;28;20755;-76
2021/05/20 12:32:27;;;;;;;0.83;0.83;;;15.50;79.60;;;;;;5073699;28;20395;-74
2021/05/20 12:35:07;;;;;;;0.80;0.70;;;15.60;79.00;;;;;;5073232;28;20423;-75
2021/05/20 12:38:12;;;;;;;0.70;0.70;;;15.90;74.60;;;;;;5073221;28;20575;-76
2021/05/20 12:40:41;;;;;;;1.37;1.10;;;16.00;77.40;;;;;;5072154;28;20884;-76
2021/05/20 12:43:20;;;;;;;0.80;0.80;;;16.20;79.70;;;;;;5073170;28;20411;-77
2021/05/20 12:45:58;;;;;;;1.40;0.83;;;16.00;76.50;;;;;;5073304;28;20391;-77
2021/05/20 12:48:36;;;;;;;2.43;0.90;;;15.60;75.80;;;;;;5073850;28;20410;-78
2021/05/20 12:51:06;;;;;;;0.70;0.70;;;15.60;75.60;;;;;;5073192;28;20394;-75
2021/05/20 12:53:41;;;;;;;1.10;1.00;;;15.50;80.10;;;;;;5073411;28;21027;-76
2021/05/20 12:56:22;;;;;;;1.20;1.10;;;15.30;75.20;;;;;;5073083;28;20892;-76
2021/05/20 12:58:54;;;;;;;0.83;0.83;;;15.40;75.10;;;;;;5073747;28;20403;-79
2021/05/20 13:01:22;;;;;;;5.10;0.90;;;15.80;74.90;;;;;;5073522;28;20888;-75
2021/05/20 13:03:49;;;;;;;0.93;0.87;;;16.10;74.30;;;;;;5073438;28;20462;-78
2021/05/20 13:06:22;;;;;;;0.77;0.77;;;16.40;73.20;;;;;;5072952;28;20443;-78
2021/05/20 13:08:48;;;;;;;3.37;3.13;;;16.30;70.30;;;;;;5072907;28;20438;-77